Hlavní strana
METAR-TAF:

METAR-TAF

Letiště :

Sandane, Norsko

zeměpisná šířka: 61-50N, zeměpisná délka: 006-07E, výška: 6 m

Aktuální stav počasí

Zpráva byla vytvořena před 30 minutami, v 17:20 UTC
Jihovýchodní vítr 4 kt
Teplota -1°C
Vlhkost vzduchu 93%
Tlak 1010 hPa
Viditelnost 10 km a více
Skoro jasno ve výšce 600 ft
Polojasno ve výšce 1200 ft
přeháňky v blízkosti

METAR: ENSD 181720Z 14004KT 9999 VCSH FEW006 SCT012 VV035 M01/M02 Q1010 RMK WIND 1138FT VRB01KT

Čas: 18:50 (17:50 UTC)


TAF: chybějící

Stav a předpovědi počasí z více než 4 000 letišť (zprávy METAR a TAF).

Červené a žluté tečky na mapě představují dostupné meteorologické stanice.

Když kurzor umístíte na tečku, zobrazí se název stanice.

Pak kliknutím zobrazíte stav a předpověď počasí.

Chcete-li změnit mapu, kliknutím na zelené tlačítko se znaménkem +mapu přiblížíte, kliknutím na zelené tlačítko se znaménkem – mapu oddálíte a kliknutím na zelené šipky přejdete na sousední mapy.


METAR-TAF: